createdAt,value
2022-12-19T00:01:37.879Z,11.02
2022-12-19T00:04:09.811Z,11.48
2022-12-19T00:06:43.945Z,10.70
2022-12-19T00:09:14.562Z,9.77
2022-12-19T00:11:44.475Z,9.95
2022-12-19T00:14:13.333Z,10.85
2022-12-19T00:16:42.358Z,7.40
2022-12-19T00:19:12.842Z,9.52
2022-12-19T00:21:41.689Z,10.18
2022-12-19T00:24:20.724Z,7.45
2022-12-19T00:26:51.192Z,6.80
2022-12-19T00:29:21.476Z,8.05
2022-12-19T00:31:50.331Z,8.95
2022-12-19T00:34:19.042Z,18.75
2022-12-19T00:36:48.059Z,15.20
2022-12-19T00:39:17.051Z,10.00
2022-12-19T00:41:47.453Z,10.05
2022-12-19T00:44:17.011Z,9.73
2022-12-19T00:46:52.440Z,9.55
2022-12-19T00:49:22.972Z,9.40
2022-12-19T00:51:51.514Z,10.02
2022-12-19T00:54:20.387Z,9.40
2022-12-19T00:56:49.778Z,9.05
2022-12-19T00:59:23.945Z,9.77
2022-12-19T01:01:58.594Z,9.70
2022-12-19T01:04:29.224Z,9.73
2022-12-19T01:07:01.959Z,9.67
2022-12-19T01:09:36.285Z,9.43
2022-12-19T01:12:25.336Z,8.30
2022-12-19T01:15:02.939Z,9.32
2022-12-19T01:17:44.311Z,8.90
2022-12-19T01:20:16.666Z,9.25
2022-12-19T01:22:47.960Z,9.03
2022-12-19T01:25:16.942Z,8.50
2022-12-19T01:27:45.798Z,8.27
2022-12-19T01:30:15.600Z,8.00
2022-12-19T01:32:45.919Z,7.75
2022-12-19T01:35:21.408Z,8.10
2022-12-19T01:38:07.278Z,8.57
2022-12-19T01:40:38.538Z,8.52
2022-12-19T01:43:13.478Z,7.53
2022-12-19T01:45:45.966Z,7.40
2022-12-19T01:48:43.261Z,8.20
2022-12-19T01:51:21.168Z,8.38
2022-12-19T01:53:55.656Z,8.05
2022-12-19T01:56:30.641Z,8.02
2022-12-19T01:59:06.526Z,8.48
2022-12-19T02:01:50.873Z,8.80
2022-12-19T02:04:31.958Z,8.57
2022-12-19T02:07:15.536Z,9.32
2022-12-19T02:09:56.866Z,8.43
2022-12-19T02:12:42.662Z,8.85
2022-12-19T02:15:15.341Z,8.15
2022-12-19T02:17:58.870Z,9.85
2022-12-19T02:21:07.612Z,10.05
2022-12-19T02:24:03.966Z,9.18
2022-12-19T02:26:53.060Z,9.60
2022-12-19T02:29:51.630Z,8.65
2022-12-19T02:33:01.582Z,8.80
2022-12-19T02:35:37.765Z,8.35
2022-12-19T02:38:33.465Z,8.50
2022-12-19T02:41:15.192Z,8.60
2022-12-19T02:43:56.824Z,8.25
2022-12-19T02:46:31.026Z,8.07
2022-12-19T02:49:00.469Z,8.07
2022-12-19T02:51:29.127Z,8.65
2022-12-19T02:53:58.376Z,9.43
2022-12-19T02:56:43.205Z,8.07
2022-12-19T02:59:48.390Z,7.63
2022-12-19T03:02:30.733Z,7.72
2022-12-19T03:05:38.121Z,7.45
2022-12-19T03:08:11.696Z,7.40
2022-12-19T03:10:59.985Z,7.30
2022-12-19T03:13:35.148Z,7.47
2022-12-19T03:16:05.889Z,7.55
2022-12-19T03:18:35.397Z,7.63
2022-12-19T03:21:03.934Z,7.88
2022-12-19T03:23:33.462Z,7.10
2022-12-19T03:26:09.558Z,7.60
2022-12-19T03:29:12.236Z,8.30
2022-12-19T03:31:43.338Z,18.40
2022-12-19T03:34:38.164Z,13.32
2022-12-19T03:37:13.782Z,12.38
2022-12-19T03:39:46.776Z,15.25
2022-12-19T03:42:36.421Z,12.00
2022-12-19T03:45:08.055Z,13.20
2022-12-19T03:47:52.560Z,13.10
2022-12-19T03:50:25.633Z,12.75
2022-12-19T03:53:14.490Z,12.00
2022-12-19T03:55:56.145Z,10.50
2022-12-19T03:58:39.236Z,10.03
2022-12-19T04:01:09.136Z,11.55
2022-12-19T04:03:38.324Z,8.98
2022-12-19T04:06:08.463Z,9.43
2022-12-19T04:08:38.283Z,8.80
2022-12-19T04:11:15.026Z,10.00
2022-12-19T04:14:08.191Z,11.75
2022-12-19T04:17:08.971Z,12.15
2022-12-19T04:19:49.627Z,11.35
2022-12-19T04:22:26.709Z,12.18
2022-12-19T04:24:57.120Z,10.27
2022-12-19T04:27:32.092Z,10.95
2022-12-19T04:30:03.783Z,9.43
2022-12-19T04:32:37.997Z,9.73
2022-12-19T04:35:07.856Z,8.77
2022-12-19T04:37:36.770Z,8.07
2022-12-19T04:40:07.421Z,7.28
2022-12-19T04:42:36.690Z,9.65
2022-12-19T04:45:07.031Z,8.15
2022-12-19T04:47:36.683Z,7.50
2022-12-19T04:50:06.740Z,8.43
2022-12-19T04:52:36.213Z,9.95
2022-12-19T04:55:05.149Z,10.13
2022-12-19T04:57:34.380Z,9.85
2022-12-19T05:00:04.879Z,8.60
2022-12-19T05:02:34.277Z,8.25
2022-12-19T05:05:03.557Z,8.52
2022-12-19T05:07:32.935Z,10.77
2022-12-19T05:10:01.671Z,11.60
2022-12-19T05:12:31.407Z,12.25
2022-12-19T05:15:00.143Z,12.80
2022-12-19T05:17:28.996Z,13.82
2022-12-19T05:19:57.594Z,13.95
2022-12-19T05:22:30.201Z,13.15
2022-12-19T05:24:59.397Z,12.55
2022-12-19T05:27:31.704Z,12.23
2022-12-19T05:30:00.685Z,12.70
2022-12-19T05:32:33.350Z,12.97
2022-12-19T05:35:02.436Z,13.00
2022-12-19T05:37:31.124Z,12.20
2022-12-19T05:39:59.973Z,13.30
2022-12-19T05:42:28.697Z,11.85
2022-12-19T05:44:57.835Z,12.32
2022-12-19T05:47:26.488Z,13.05
2022-12-19T05:49:55.464Z,13.85
2022-12-19T05:52:25.548Z,13.18
2022-12-19T05:54:54.452Z,12.90
2022-12-19T05:57:23.783Z,13.60
2022-12-19T05:59:53.101Z,14.18
2022-12-19T06:02:22.486Z,13.10
2022-12-19T06:04:51.488Z,13.93
2022-12-19T06:07:21.263Z,13.48
2022-12-19T06:09:51.205Z,13.60
2022-12-19T06:12:20.257Z,14.85
2022-12-19T06:14:49.126Z,14.88
2022-12-19T06:17:20.791Z,14.23
2022-12-19T06:19:50.370Z,13.18
2022-12-19T06:22:19.385Z,12.97
2022-12-19T06:24:48.895Z,13.15
2022-12-19T06:27:17.738Z,12.38
2022-12-19T06:29:47.558Z,11.20
2022-12-19T06:32:16.470Z,11.32
2022-12-19T06:35:03.609Z,12.30
2022-12-19T06:37:33.102Z,9.38
2022-12-19T06:40:01.926Z,11.73
2022-12-19T06:42:31.982Z,10.00
2022-12-19T06:45:01.003Z,11.13
2022-12-19T06:47:29.796Z,10.65
2022-12-19T06:49:58.479Z,10.27
2022-12-19T06:52:27.392Z,11.45
2022-12-19T06:54:56.908Z,10.40
2022-12-19T06:57:26.021Z,10.65
2022-12-19T06:59:55.624Z,11.73
2022-12-19T07:02:31.176Z,12.03
2022-12-19T07:05:05.202Z,13.05
2022-12-19T07:07:34.743Z,12.70
2022-12-19T07:10:04.780Z,14.20
2022-12-19T07:12:34.942Z,13.80
2022-12-19T07:15:03.878Z,14.18
2022-12-19T07:17:32.758Z,13.15
2022-12-19T07:20:05.244Z,13.85
2022-12-19T07:22:37.500Z,14.45
2022-12-19T07:25:07.478Z,15.32
2022-12-19T07:27:36.863Z,14.45
2022-12-19T07:30:09.451Z,15.55
2022-12-19T07:32:38.200Z,15.80
2022-12-19T07:35:08.508Z,16.10
2022-12-19T07:37:38.149Z,16.20
2022-12-19T07:40:07.610Z,16.75
2022-12-19T07:42:36.533Z,16.45
2022-12-19T07:45:05.316Z,16.97
2022-12-19T07:47:34.939Z,17.57
2022-12-19T07:50:03.917Z,17.42
2022-12-19T07:52:33.570Z,18.02
2022-12-19T07:55:02.869Z,17.60
2022-12-19T07:57:31.922Z,17.87
2022-12-19T08:00:00.598Z,18.42
2022-12-19T08:02:29.965Z,18.30
2022-12-19T08:04:59.669Z,17.87
2022-12-19T08:07:29.224Z,18.57
2022-12-19T08:09:57.893Z,18.35
2022-12-19T08:12:27.900Z,17.98
2022-12-19T08:14:57.460Z,18.77
2022-12-19T08:17:27.172Z,19.13
2022-12-19T08:19:55.985Z,17.98
2022-12-19T08:22:24.902Z,18.85
2022-12-19T08:24:53.898Z,18.27
2022-12-19T08:27:22.764Z,18.20
2022-12-19T08:29:52.105Z,18.42
2022-12-19T08:32:22.024Z,17.83
2022-12-19T08:34:51.785Z,18.80
2022-12-19T08:37:20.743Z,18.98
2022-12-19T08:39:50.978Z,17.42
2022-12-19T08:42:19.709Z,18.65
2022-12-19T08:44:48.861Z,17.65
2022-12-19T08:47:17.661Z,18.83
2022-12-19T08:49:46.630Z,17.67
2022-12-19T08:52:15.302Z,18.20
2022-12-19T08:54:46.597Z,17.73
2022-12-19T08:57:34.906Z,17.60
2022-12-19T09:00:07.221Z,18.52
2022-12-19T09:02:37.219Z,17.13
2022-12-19T09:06:05.461Z,18.48
2022-12-19T09:07:55.383Z,18.23
2022-12-19T09:10:24.028Z,16.98
2022-12-19T09:12:57.699Z,17.58
2022-12-19T09:15:27.157Z,17.10
2022-12-19T09:17:55.817Z,17.88
2022-12-19T09:20:24.740Z,18.38
2022-12-19T09:22:53.624Z,18.08
2022-12-19T09:25:22.417Z,18.60
2022-12-19T09:28:26.514Z,21.05
2022-12-19T09:30:40.404Z,21.48
2022-12-19T09:33:09.026Z,19.80
2022-12-19T09:35:38.357Z,18.75
2022-12-19T09:38:06.879Z,19.98
2022-12-19T09:41:09.313Z,18.87
2022-12-19T09:44:05.083Z,19.38
2022-12-19T09:46:56.538Z,19.67
2022-12-19T09:49:46.916Z,19.65
2022-12-19T09:52:41.991Z,20.38
2022-12-19T09:55:23.701Z,19.20
2022-12-19T09:58:10.686Z,19.23
2022-12-19T10:00:46.436Z,19.15
2022-12-19T10:04:07.070Z,20.35
2022-12-19T10:07:18.626Z,20.33
2022-12-19T10:10:58.079Z,19.50
2022-12-19T10:12:51.412Z,19.33
2022-12-19T10:16:00.323Z,19.45
2022-12-19T10:19:02.964Z,18.37
2022-12-19T10:22:16.244Z,18.92
2022-12-19T10:24:38.081Z,18.52
2022-12-19T10:27:27.345Z,20.00
2022-12-19T10:30:16.980Z,18.85
2022-12-19T10:33:21.031Z,18.98
2022-12-19T10:36:01.624Z,19.55
2022-12-19T10:38:40.265Z,18.73
2022-12-19T10:41:23.149Z,17.92
2022-12-19T10:43:59.958Z,18.27
2022-12-19T10:46:42.850Z,18.83
2022-12-19T10:49:19.781Z,19.23
2022-12-19T10:51:57.530Z,17.90
2022-12-19T10:54:38.525Z,18.27
2022-12-19T10:57:26.083Z,18.40
2022-12-19T11:00:06.591Z,18.30
2022-12-19T11:02:44.495Z,17.27
2022-12-19T11:05:26.161Z,18.05
2022-12-19T11:08:08.674Z,18.17
2022-12-19T11:13:22.957Z,18.10
2022-12-19T11:18:50.141Z,16.33
2022-12-19T11:23:47.269Z,16.75
2022-12-19T11:29:18.089Z,16.08
2022-12-19T11:30:09.729Z,15.85
2022-12-19T11:30:41.630Z,15.82
2022-12-19T11:30:48.176Z,16.85
2022-12-19T11:34:29.713Z,14.98
2022-12-19T11:37:24.973Z,15.30
2022-12-19T11:40:03.310Z,14.43
2022-12-19T11:43:10.869Z,14.88
2022-12-19T11:45:51.055Z,15.88
2022-12-19T11:48:38.696Z,16.35
2022-12-19T11:51:19.588Z,21.45
2022-12-19T11:54:05.955Z,20.65
2022-12-19T11:56:36.156Z,18.55
2022-12-19T11:59:37.049Z,18.27
2022-12-19T12:02:29.999Z,17.88
2022-12-19T12:05:07.999Z,16.52
2022-12-19T12:09:20.782Z,16.05
2022-12-19T12:16:11.670Z,15.40
2022-12-19T12:23:31.069Z,15.52
2022-12-19T12:31:16.284Z,17.83
2022-12-19T12:31:31.888Z,17.55
2022-12-19T12:31:53.069Z,17.02
2022-12-19T12:31:58.469Z,21.87
2022-12-19T12:32:02.268Z,17.63
2022-12-19T12:35:33.432Z,18.73
2022-12-19T12:38:29.920Z,21.35
2022-12-19T12:41:14.098Z,20.45
2022-12-19T12:44:03.097Z,34.10
2022-12-19T12:46:51.184Z,16.95
2022-12-19T12:49:41.898Z,24.63
2022-12-19T12:52:21.113Z,16.27
2022-12-19T12:54:51.624Z,16.95
2022-12-19T12:57:30.138Z,18.53
2022-12-19T13:00:26.889Z,16.63
2022-12-19T13:03:17.717Z,17.33
2022-12-19T13:06:07.310Z,17.30
2022-12-19T13:09:18.104Z,17.08
2022-12-19T13:12:21.719Z,16.70
2022-12-19T13:17:51.277Z,18.42
2022-12-19T13:20:20.263Z,18.35
2022-12-19T13:22:59.355Z,18.42
2022-12-19T13:25:28.237Z,18.83
2022-12-19T13:28:24.432Z,19.55
2022-12-19T13:31:18.674Z,19.13
2022-12-19T13:33:55.843Z,20.05
2022-12-19T13:39:50.026Z,22.08
2022-12-19T13:40:11.147Z,23.20
2022-12-19T13:43:22.684Z,23.20
2022-12-19T13:45:55.904Z,24.80
2022-12-19T13:48:34.542Z,25.80
2022-12-19T13:51:14.465Z,29.92
2022-12-19T13:53:45.316Z,28.23
2022-12-19T13:56:17.212Z,26.02
2022-12-19T13:58:56.754Z,23.73
2022-12-19T14:01:33.202Z,22.58
2022-12-19T14:04:29.727Z,23.88
2022-12-19T14:07:36.912Z,24.70
2022-12-19T14:11:29.738Z,24.67
2022-12-19T14:13:47.550Z,25.42
2022-12-19T14:16:15.381Z,25.27
2022-12-19T14:18:51.083Z,24.67
2022-12-19T14:22:05.677Z,23.83
2022-12-19T14:24:13.669Z,23.60
2022-12-19T14:28:21.003Z,24.85
2022-12-19T14:30:28.572Z,27.85
2022-12-19T14:33:43.989Z,27.73
2022-12-19T14:36:08.398Z,26.63
2022-12-19T14:39:23.113Z,24.02
2022-12-19T14:41:48.335Z,23.35
2022-12-19T14:54:14.692Z,21.65
2022-12-19T14:54:16.317Z,22.50
2022-12-19T14:54:23.671Z,21.48
2022-12-19T14:54:37.413Z,20.85
2022-12-19T14:59:28.412Z,19.45
2022-12-19T15:02:02.951Z,19.55
2022-12-19T15:04:55.004Z,16.67
2022-12-19T15:07:30.721Z,19.55
2022-12-19T15:11:07.925Z,19.90
2022-12-19T15:14:57.536Z,19.75
2022-12-19T15:16:30.818Z,21.88
2022-12-19T15:19:02.979Z,23.08
2022-12-19T15:21:32.721Z,22.63
2022-12-19T15:24:01.304Z,26.73
2022-12-19T15:26:47.652Z,28.43
2022-12-19T15:29:21.829Z,28.77
2022-12-19T15:31:51.264Z,27.42
2022-12-19T15:34:37.949Z,27.77
2022-12-19T15:37:11.012Z,27.27
2022-12-19T15:39:44.504Z,26.52
2022-12-19T15:42:25.784Z,24.10
2022-12-19T15:45:01.319Z,22.70
2022-12-19T15:47:38.844Z,23.27
2022-12-19T15:50:21.725Z,22.90
2022-12-19T15:52:51.447Z,19.92
2022-12-19T15:55:21.601Z,17.83
2022-12-19T15:58:00.543Z,17.33
2022-12-19T16:00:37.983Z,15.98
2022-12-19T16:03:23.298Z,15.68
2022-12-19T16:05:54.380Z,14.90
2022-12-19T16:08:27.126Z,14.73
2022-12-19T16:11:01.774Z,14.23
2022-12-19T16:13:37.252Z,14.43
2022-12-19T16:16:15.015Z,13.98
2022-12-19T16:18:46.649Z,15.20
2022-12-19T16:21:33.754Z,13.85
2022-12-19T16:24:03.874Z,14.73
2022-12-19T16:26:44.912Z,14.38
2022-12-19T16:29:21.024Z,13.45
2022-12-19T16:31:50.484Z,14.15
2022-12-19T16:34:23.406Z,14.02
2022-12-19T16:36:55.157Z,12.02
2022-12-19T16:39:26.932Z,12.82
2022-12-19T16:41:55.809Z,12.52
2022-12-19T16:44:34.466Z,11.45
2022-12-19T16:47:07.424Z,11.07
2022-12-19T16:49:36.629Z,10.45
2022-12-19T16:52:05.483Z,10.15
2022-12-19T16:54:45.211Z,11.05
2022-12-19T16:57:25.945Z,10.82
2022-12-19T16:59:56.377Z,11.50
2022-12-19T17:02:46.522Z,11.98
2022-12-19T17:05:24.763Z,12.07
2022-12-19T17:07:58.865Z,12.23
2022-12-19T17:10:34.974Z,11.65
2022-12-19T17:13:04.627Z,12.52
2022-12-19T17:15:37.468Z,12.00
2022-12-19T17:18:26.730Z,12.50
2022-12-19T17:20:57.248Z,13.23
2022-12-19T17:23:33.566Z,13.48
2022-12-19T17:26:17.466Z,13.48
2022-12-19T17:28:50.492Z,14.30
2022-12-19T17:31:27.052Z,14.32
2022-12-19T17:33:59.669Z,15.23
2022-12-19T17:36:37.629Z,15.65
2022-12-19T17:39:29.779Z,15.80
2022-12-19T17:42:22.112Z,14.63
2022-12-19T17:44:52.129Z,15.10
2022-12-19T17:47:21.920Z,15.30
2022-12-19T17:49:50.933Z,15.18
2022-12-19T17:52:20.966Z,15.57
2022-12-19T17:54:50.731Z,16.30
2022-12-19T17:57:21.061Z,16.25
2022-12-19T17:59:50.008Z,17.48
2022-12-19T18:02:27.799Z,16.67
2022-12-19T18:04:56.721Z,16.30
2022-12-19T18:07:25.509Z,15.98
2022-12-19T18:09:54.573Z,17.20
2022-12-19T18:12:23.206Z,16.73
2022-12-19T18:14:52.314Z,16.58
2022-12-19T18:17:26.097Z,17.20
2022-12-19T18:19:55.352Z,17.25
2022-12-19T18:22:24.262Z,17.37
2022-12-19T18:24:53.862Z,17.20
2022-12-19T18:27:22.672Z,16.77
2022-12-19T18:29:51.692Z,16.45
2022-12-19T18:32:21.697Z,16.67
2022-12-19T18:34:51.265Z,16.55
2022-12-19T18:37:20.007Z,16.10
2022-12-19T18:39:50.060Z,16.98
2022-12-19T18:42:21.595Z,16.87
2022-12-19T18:44:50.664Z,16.77
2022-12-19T18:47:24.528Z,15.85
2022-12-19T18:49:53.729Z,16.15
2022-12-19T18:52:22.309Z,16.13
2022-12-19T18:54:51.065Z,15.48
2022-12-19T18:57:19.895Z,16.08
2022-12-19T18:59:49.389Z,13.85
2022-12-19T19:02:28.879Z,15.65
2022-12-19T19:04:59.825Z,15.85
2022-12-19T19:07:28.967Z,16.17
2022-12-19T19:09:57.661Z,16.13
2022-12-19T19:12:41.587Z,15.43
2022-12-19T19:15:11.964Z,15.15
2022-12-19T19:17:41.919Z,15.70
2022-12-19T19:20:10.880Z,16.75
2022-12-19T19:22:39.561Z,16.40
2022-12-19T19:25:10.149Z,14.63
2022-12-19T19:27:40.342Z,15.48
2022-12-19T19:30:10.809Z,15.30
2022-12-19T19:32:45.640Z,14.95
2022-12-19T19:35:19.665Z,15.52
2022-12-19T19:37:51.223Z,15.35
2022-12-19T19:40:20.824Z,15.07
2022-12-19T19:42:49.447Z,14.48
2022-12-19T19:45:18.199Z,14.63
2022-12-19T19:47:46.907Z,15.40
2022-12-19T19:50:15.750Z,15.48
2022-12-19T19:52:44.441Z,14.65
2022-12-19T19:55:15.480Z,15.45
2022-12-19T19:57:44.358Z,14.10
2022-12-19T20:00:13.628Z,14.98
2022-12-19T20:02:42.970Z,14.73
2022-12-19T20:05:12.000Z,15.20
2022-12-19T20:07:40.841Z,15.57
2022-12-19T20:10:10.999Z,15.63
2022-12-19T20:12:40.048Z,14.82
2022-12-19T20:15:09.331Z,14.73
2022-12-19T20:17:38.130Z,15.10
2022-12-19T20:20:08.738Z,15.30
2022-12-19T20:22:37.711Z,14.60
2022-12-19T20:25:06.535Z,15.05
2022-12-19T20:27:35.395Z,15.38
2022-12-19T20:30:05.318Z,14.43
2022-12-19T20:32:34.549Z,14.70
2022-12-19T20:35:03.607Z,14.48
2022-12-19T20:37:33.940Z,13.68
2022-12-19T20:40:02.643Z,14.02
2022-12-19T20:42:31.429Z,14.00
2022-12-19T20:45:00.042Z,13.85
2022-12-19T20:47:29.870Z,13.73
2022-12-19T20:49:58.460Z,14.73
2022-12-19T20:52:27.304Z,14.15
2022-12-19T20:54:55.938Z,14.25
2022-12-19T20:57:24.692Z,13.95
2022-12-19T20:59:53.296Z,14.23
2022-12-19T21:02:22.269Z,15.33
2022-12-19T21:04:51.143Z,14.55
2022-12-19T21:07:19.944Z,13.13
2022-12-19T21:09:51.030Z,13.00
2022-12-19T21:12:19.795Z,12.52
2022-12-19T21:14:48.886Z,12.68
2022-12-19T21:17:17.746Z,12.43
2022-12-19T21:19:46.759Z,11.97
2022-12-19T21:22:15.587Z,11.40
2022-12-19T21:24:44.193Z,11.77
2022-12-19T21:27:12.964Z,12.18
2022-12-19T21:29:41.530Z,12.63
2022-12-19T21:32:16.818Z,12.20
2022-12-19T21:34:47.555Z,12.95
2022-12-19T21:37:16.382Z,12.98
2022-12-19T21:39:45.365Z,12.98
2022-12-19T21:42:14.031Z,11.82
2022-12-19T21:44:42.831Z,12.32
2022-12-19T21:47:11.460Z,12.27
2022-12-19T21:49:40.748Z,13.00
2022-12-19T21:52:09.715Z,13.63
2022-12-19T21:54:38.587Z,13.75
2022-12-19T21:57:07.157Z,13.70
2022-12-19T21:59:36.003Z,14.32
2022-12-19T22:02:04.709Z,14.68
2022-12-19T22:04:33.517Z,14.35
2022-12-19T22:07:06.239Z,13.98
2022-12-19T22:09:35.454Z,14.75
2022-12-19T22:12:04.082Z,15.25
2022-12-19T22:14:32.957Z,14.60
2022-12-19T22:17:01.575Z,14.88
2022-12-19T22:19:30.483Z,15.45
2022-12-19T22:21:59.084Z,14.30
2022-12-19T22:24:27.891Z,14.17
2022-12-19T22:26:56.513Z,14.30
2022-12-19T22:29:25.627Z,13.77
2022-12-19T22:31:54.360Z,14.07
2022-12-19T22:34:23.505Z,13.55
2022-12-19T22:36:52.127Z,13.63
2022-12-19T22:39:23.625Z,13.73
2022-12-19T22:41:52.632Z,13.52
2022-12-19T22:44:23.988Z,12.70
2022-12-19T22:46:53.759Z,12.55
2022-12-19T22:49:22.479Z,13.60
2022-12-19T22:51:51.287Z,12.63
2022-12-19T22:54:19.874Z,13.43
2022-12-19T22:56:52.544Z,13.50
2022-12-19T22:59:21.239Z,12.73
2022-12-19T23:01:49.977Z,12.68
2022-12-19T23:04:19.352Z,12.90
2022-12-19T23:06:48.201Z,12.88
2022-12-19T23:09:18.995Z,13.50
2022-12-19T23:11:50.355Z,13.40
2022-12-19T23:14:20.846Z,14.40
2022-12-19T23:16:50.072Z,13.73
2022-12-19T23:19:19.556Z,13.57
2022-12-19T23:21:48.519Z,14.00
2022-12-19T23:24:17.341Z,13.82
2022-12-19T23:26:46.233Z,12.52
2022-12-19T23:29:16.960Z,14.15
2022-12-19T23:31:48.077Z,13.30
2022-12-19T23:34:17.870Z,12.93
2022-12-19T23:39:36.056Z,12.48
2022-12-19T23:42:04.908Z,11.88
2022-12-19T23:44:33.907Z,10.57
2022-12-19T23:47:04.048Z,10.20
2022-12-19T23:49:34.459Z,10.57
2022-12-19T23:52:03.178Z,10.07
2022-12-19T23:54:32.247Z,8.95
2022-12-19T23:57:01.184Z,8.38
2022-12-19T23:59:29.926Z,7.72
